sensor_id;sensor_type;location;lat;lon;timestamp;temperature;humidity
17346;DHT22;8790;53.590;10.002;2022-10-16T00:01:30;14.80;99.90
17346;DHT22;8790;53.590;10.002;2022-10-16T00:04:02;14.80;99.90
17346;DHT22;8790;53.590;10.002;2022-10-16T00:06:34;14.80;99.90
17346;DHT22;8790;53.590;10.002;2022-10-16T00:09:07;14.80;99.90
17346;DHT22;8790;53.590;10.002;2022-10-16T00:11:39;14.80;99.90
17346;DHT22;8790;53.590;10.002;2022-10-16T00:14:13;14.80;99.90
17346;DHT22;8790;53.590;10.002;2022-10-16T00:16:47;14.80;99.90
17346;DHT22;8790;53.590;10.002;2022-10-16T00:19:19;14.80;99.90
17346;DHT22;8790;53.590;10.002;2022-10-16T00:21:50;14.80;99.90
17346;DHT22;8790;53.590;10.002;2022-10-16T00:24:22;14.80;99.90
17346;DHT22;8790;53.590;10.002;2022-10-16T00:26:54;14.80;99.90
17346;DHT22;8790;53.590;10.002;2022-10-16T00:29:26;14.70;99.90
17346;DHT22;8790;53.590;10.002;2022-10-16T00:31:59;14.70;99.90
17346;DHT22;8790;53.590;10.002;2022-10-16T00:34:31;14.80;99.90
17346;DHT22;8790;53.590;10.002;2022-10-16T00:37:03;14.80;99.90
17346;DHT22;8790;53.590;10.002;2022-10-16T00:39:35;14.80;99.90
17346;DHT22;8790;53.590;10.002;2022-10-16T00:42:09;14.70;99.90
17346;DHT22;8790;53.590;10.002;2022-10-16T00:44:46;14.70;99.90
17346;DHT22;8790;53.590;10.002;2022-10-16T00:47:24;14.80;99.90
17346;DHT22;8790;53.590;10.002;2022-10-16T00:50:00;14.80;99.90
17346;DHT22;8790;53.590;10.002;2022-10-16T00:52:34;14.80;99.90
17346;DHT22;8790;53.590;10.002;2022-10-16T00:55:06;14.80;99.90
17346;DHT22;8790;53.590;10.002;2022-10-16T00:57:40;14.80;99.90
17346;DHT22;8790;53.590;10.002;2022-10-16T01:00:15;14.80;99.90
17346;DHT22;8790;53.590;10.002;2022-10-16T01:02:54;14.80;99.90
17346;DHT22;8790;53.590;10.002;2022-10-16T01:05:32;14.70;99.90
17346;DHT22;8790;53.590;10.002;2022-10-16T01:08:08;14.70;99.90
17346;DHT22;8790;53.590;10.002;2022-10-16T01:10:52;14.70;99.90
17346;DHT22;8790;53.590;10.002;2022-10-16T01:13:29;14.70;99.90
17346;DHT22;8790;53.590;10.002;2022-10-16T01:16:06;14.70;99.90
17346;DHT22;8790;53.590;10.002;2022-10-16T01:18:43;14.70;99.90
17346;DHT22;8790;53.590;10.002;2022-10-16T01:21:21;14.70;99.90
17346;DHT22;8790;53.590;10.002;2022-10-16T01:24:02;14.70;99.90
17346;DHT22;8790;53.590;10.002;2022-10-16T01:26:50;14.70;99.90
17346;DHT22;8790;53.590;10.002;2022-10-16T01:29:26;14.60;99.90
17346;DHT22;8790;53.590;10.002;2022-10-16T01:32:04;14.60;99.90
17346;DHT22;8790;53.590;10.002;2022-10-16T01:34:40;14.60;99.90
17346;DHT22;8790;53.590;10.002;2022-10-16T01:37:17;14.70;99.90
17346;DHT22;8790;53.590;10.002;2022-10-16T01:39:51;14.60;99.90
17346;DHT22;8790;53.590;10.002;2022-10-16T01:42:30;14.60;99.90
17346;DHT22;8790;53.590;10.002;2022-10-16T01:45:08;14.60;99.90
17346;DHT22;8790;53.590;10.002;2022-10-16T01:47:44;14.50;99.90
17346;DHT22;8790;53.590;10.002;2022-10-16T01:50:18;14.50;99.90
17346;DHT22;8790;53.590;10.002;2022-10-16T01:52:52;14.60;99.90
17346;DHT22;8790;53.590;10.002;2022-10-16T01:55:29;14.50;99.90
17346;DHT22;8790;53.590;10.002;2022-10-16T01:58:05;14.50;99.90
17346;DHT22;8790;53.590;10.002;2022-10-16T02:00:43;14.50;99.90
17346;DHT22;8790;53.590;10.002;2022-10-16T02:03:18;14.50;99.90
17346;DHT22;8790;53.590;10.002;2022-10-16T02:05:53;14.40;99.90
17346;DHT22;8790;53.590;10.002;2022-10-16T02:08:28;14.50;99.90
17346;DHT22;8790;53.590;10.002;2022-10-16T02:11:01;14.50;99.90
17346;DHT22;8790;53.590;10.002;2022-10-16T02:13:37;14.50;99.90
17346;DHT22;8790;53.590;10.002;2022-10-16T02:16:12;14.50;99.90
17346;DHT22;8790;53.590;10.002;2022-10-16T02:18:45;14.40;99.90
17346;DHT22;8790;53.590;10.002;2022-10-16T02:21:21;14.40;99.90
17346;DHT22;8790;53.590;10.002;2022-10-16T02:24:00;14.40;99.90
17346;DHT22;8790;53.590;10.002;2022-10-16T02:26:37;14.40;99.90
17346;DHT22;8790;53.590;10.002;2022-10-16T02:29:14;14.30;99.90
17346;DHT22;8790;53.590;10.002;2022-10-16T02:31:50;14.30;99.90
17346;DHT22;8790;53.590;10.002;2022-10-16T02:34:26;14.40;99.90
17346;DHT22;8790;53.590;10.002;2022-10-16T02:37:01;14.30;99.90
17346;DHT22;8790;53.590;10.002;2022-10-16T02:39:33;14.30;99.90
17346;DHT22;8790;53.590;10.002;2022-10-16T02:42:09;14.30;99.90
17346;DHT22;8790;53.590;10.002;2022-10-16T02:44:41;14.20;99.90
17346;DHT22;8790;53.590;10.002;2022-10-16T02:47:14;14.30;99.90
17346;DHT22;8790;53.590;10.002;2022-10-16T02:49:46;14.30;99.90
17346;DHT22;8790;53.590;10.002;2022-10-16T02:52:18;14.30;99.90
17346;DHT22;8790;53.590;10.002;2022-10-16T02:54:50;14.20;99.90
17346;DHT22;8790;53.590;10.002;2022-10-16T02:57:22;14.30;99.90
17346;DHT22;8790;53.590;10.002;2022-10-16T02:59:54;14.20;99.90
17346;DHT22;8790;53.590;10.002;2022-10-16T03:02:27;14.20;99.90
17346;DHT22;8790;53.590;10.002;2022-10-16T03:04:58;14.20;99.90
17346;DHT22;8790;53.590;10.002;2022-10-16T03:07:30;14.20;99.90
17346;DHT22;8790;53.590;10.002;2022-10-16T03:10:02;14.20;99.90
17346;DHT22;8790;53.590;10.002;2022-10-16T03:12:34;14.20;99.90
17346;DHT22;8790;53.590;10.002;2022-10-16T03:15:07;14.20;99.90
17346;DHT22;8790;53.590;10.002;2022-10-16T03:17:40;14.20;99.90
17346;DHT22;8790;53.590;10.002;2022-10-16T03:20:12;14.10;99.90
17346;DHT22;8790;53.590;10.002;2022-10-16T03:22:44;14.10;99.90
17346;DHT22;8790;53.590;10.002;2022-10-16T03:25:16;14.10;99.90
17346;DHT22;8790;53.590;10.002;2022-10-16T03:27:47;14.10;99.90
17346;DHT22;8790;53.590;10.002;2022-10-16T03:30:19;14.10;99.90
17346;DHT22;8790;53.590;10.002;2022-10-16T03:32:52;14.10;99.90
17346;DHT22;8790;53.590;10.002;2022-10-16T03:35:24;14.10;99.90
17346;DHT22;8790;53.590;10.002;2022-10-16T03:37:56;14.10;99.90
17346;DHT22;8790;53.590;10.002;2022-10-16T03:40:28;14.10;99.90
17346;DHT22;8790;53.590;10.002;2022-10-16T03:43:02;14.10;99.90
17346;DHT22;8790;53.590;10.002;2022-10-16T03:45:34;14.00;99.90
17346;DHT22;8790;53.590;10.002;2022-10-16T03:48:07;14.00;99.90
17346;DHT22;8790;53.590;10.002;2022-10-16T03:50:38;14.00;99.90
17346;DHT22;8790;53.590;10.002;2022-10-16T03:53:10;14.00;99.90
17346;DHT22;8790;53.590;10.002;2022-10-16T03:55:42;14.00;99.90
17346;DHT22;8790;53.590;10.002;2022-10-16T03:58:14;14.00;99.90
17346;DHT22;8790;53.590;10.002;2022-10-16T04:00:46;14.00;99.90
17346;DHT22;8790;53.590;10.002;2022-10-16T04:03:20;14.00;99.90
17346;DHT22;8790;53.590;10.002;2022-10-16T04:05:52;14.00;99.90
17346;DHT22;8790;53.590;10.002;2022-10-16T04:08:23;14.00;99.90
17346;DHT22;8790;53.590;10.002;2022-10-16T04:10:55;14.00;99.90
17346;DHT22;8790;53.590;10.002;2022-10-16T04:13:27;13.90;99.90
17346;DHT22;8790;53.590;10.002;2022-10-16T04:15:59;13.90;99.90
17346;DHT22;8790;53.590;10.002;2022-10-16T04:18:32;14.00;99.90
17346;DHT22;8790;53.590;10.002;2022-10-16T04:21:04;13.90;99.90
17346;DHT22;8790;53.590;10.002;2022-10-16T04:23:36;13.90;99.90
17346;DHT22;8790;53.590;10.002;2022-10-16T04:26:08;13.90;99.90
17346;DHT22;8790;53.590;10.002;2022-10-16T04:28:40;13.90;99.90
17346;DHT22;8790;53.590;10.002;2022-10-16T04:31:12;13.90;99.90
17346;DHT22;8790;53.590;10.002;2022-10-16T04:33:45;14.00;99.90
17346;DHT22;8790;53.590;10.002;2022-10-16T04:36:17;13.90;99.90
17346;DHT22;8790;53.590;10.002;2022-10-16T04:38:49;13.90;99.90
17346;DHT22;8790;53.590;10.002;2022-10-16T04:41:20;13.90;99.90
17346;DHT22;8790;53.590;10.002;2022-10-16T04:43:52;13.80;99.90
17346;DHT22;8790;53.590;10.002;2022-10-16T04:46:24;13.80;99.90
17346;DHT22;8790;53.590;10.002;2022-10-16T04:48:58;13.90;99.90
17346;DHT22;8790;53.590;10.002;2022-10-16T04:51:30;13.80;99.90
17346;DHT22;8790;53.590;10.002;2022-10-16T04:54:02;13.80;99.90
17346;DHT22;8790;53.590;10.002;2022-10-16T04:56:33;13.80;99.90
17346;DHT22;8790;53.590;10.002;2022-10-16T04:59:13;13.80;99.90
17346;DHT22;8790;53.590;10.002;2022-10-16T05:01:45;13.90;99.90
17346;DHT22;8790;53.590;10.002;2022-10-16T05:04:18;13.80;99.90
17346;DHT22;8790;53.590;10.002;2022-10-16T05:06:50;13.90;99.90
17346;DHT22;8790;53.590;10.002;2022-10-16T05:09:22;13.90;99.90
17346;DHT22;8790;53.590;10.002;2022-10-16T05:11:54;13.80;99.90
17346;DHT22;8790;53.590;10.002;2022-10-16T05:14:26;13.90;99.90
17346;DHT22;8790;53.590;10.002;2022-10-16T05:16:58;13.90;99.90
17346;DHT22;8790;53.590;10.002;2022-10-16T05:19:32;13.80;99.90
17346;DHT22;8790;53.590;10.002;2022-10-16T05:22:03;13.90;99.90
17346;DHT22;8790;53.590;10.002;2022-10-16T05:24:35;13.90;99.90
17346;DHT22;8790;53.590;10.002;2022-10-16T05:27:07;13.90;99.90
17346;DHT22;8790;53.590;10.002;2022-10-16T05:29:39;13.90;99.90
17346;DHT22;8790;53.590;10.002;2022-10-16T05:32:11;13.80;99.90
17346;DHT22;8790;53.590;10.002;2022-10-16T05:34:44;13.80;99.90
17346;DHT22;8790;53.590;10.002;2022-10-16T05:37:16;13.90;99.90
17346;DHT22;8790;53.590;10.002;2022-10-16T05:39:48;13.90;99.90
17346;DHT22;8790;53.590;10.002;2022-10-16T05:42:20;13.90;99.90
17346;DHT22;8790;53.590;10.002;2022-10-16T05:44:52;13.80;99.90
17346;DHT22;8790;53.590;10.002;2022-10-16T05:47:24;13.90;99.90
17346;DHT22;8790;53.590;10.002;2022-10-16T05:49:57;13.90;99.90
17346;DHT22;8790;53.590;10.002;2022-10-16T05:52:28;13.90;99.90
17346;DHT22;8790;53.590;10.002;2022-10-16T05:55:00;14.00;99.90
17346;DHT22;8790;53.590;10.002;2022-10-16T05:57:32;13.90;99.90
17346;DHT22;8790;53.590;10.002;2022-10-16T06:00:05;13.90;99.90
17346;DHT22;8790;53.590;10.002;2022-10-16T06:02:43;13.90;99.90
17346;DHT22;8790;53.590;10.002;2022-10-16T06:05:16;13.90;99.90
17346;DHT22;8790;53.590;10.002;2022-10-16T06:07:48;14.00;99.90
17346;DHT22;8790;53.590;10.002;2022-10-16T06:10:20;14.00;99.90
17346;DHT22;8790;53.590;10.002;2022-10-16T06:12:51;14.00;99.90
17346;DHT22;8790;53.590;10.002;2022-10-16T06:15:23;14.00;99.90
17346;DHT22;8790;53.590;10.002;2022-10-16T06:17:55;14.00;99.90
17346;DHT22;8790;53.590;10.002;2022-10-16T06:20:29;14.10;99.90
17346;DHT22;8790;53.590;10.002;2022-10-16T06:23:01;14.00;99.90
17346;DHT22;8790;53.590;10.002;2022-10-16T06:25:34;14.00;99.90
17346;DHT22;8790;53.590;10.002;2022-10-16T06:28:06;14.00;99.90
17346;DHT22;8790;53.590;10.002;2022-10-16T06:30:38;14.00;99.90
17346;DHT22;8790;53.590;10.002;2022-10-16T06:33:09;14.10;99.90
17346;DHT22;8790;53.590;10.002;2022-10-16T06:35:43;14.10;99.90
17346;DHT22;8790;53.590;10.002;2022-10-16T06:38:14;14.10;99.90
17346;DHT22;8790;53.590;10.002;2022-10-16T06:40:46;14.10;99.90
17346;DHT22;8790;53.590;10.002;2022-10-16T06:43:19;14.10;99.90
17346;DHT22;8790;53.590;10.002;2022-10-16T06:45:51;14.10;99.90
17346;DHT22;8790;53.590;10.002;2022-10-16T06:48:24;14.10;99.90
17346;DHT22;8790;53.590;10.002;2022-10-16T06:50:58;14.10;99.90
17346;DHT22;8790;53.590;10.002;2022-10-16T06:53:32;14.10;99.90
17346;DHT22;8790;53.590;10.002;2022-10-16T06:56:08;14.10;99.90
17346;DHT22;8790;53.590;10.002;2022-10-16T06:58:41;14.10;99.90
17346;DHT22;8790;53.590;10.002;2022-10-16T07:01:14;14.10;99.90
17346;DHT22;8790;53.590;10.002;2022-10-16T07:03:46;14.20;99.90
17346;DHT22;8790;53.590;10.002;2022-10-16T07:06:22;14.20;99.90
17346;DHT22;8790;53.590;10.002;2022-10-16T07:08:54;14.20;99.90
17346;DHT22;8790;53.590;10.002;2022-10-16T07:11:26;14.20;99.90
17346;DHT22;8790;53.590;10.002;2022-10-16T07:13:58;14.30;99.90
17346;DHT22;8790;53.590;10.002;2022-10-16T07:16:32;14.30;99.90
17346;DHT22;8790;53.590;10.002;2022-10-16T07:19:04;14.30;99.90
17346;DHT22;8790;53.590;10.002;2022-10-16T07:21:37;14.30;99.90
17346;DHT22;8790;53.590;10.002;2022-10-16T07:24:12;14.40;99.90
17346;DHT22;8790;53.590;10.002;2022-10-16T07:26:45;14.40;99.90
17346;DHT22;8790;53.590;10.002;2022-10-16T07:29:19;14.40;99.90
17346;DHT22;8790;53.590;10.002;2022-10-16T07:31:51;14.40;99.90
17346;DHT22;8790;53.590;10.002;2022-10-16T07:34:22;14.50;99.90
17346;DHT22;8790;53.590;10.002;2022-10-16T07:36:56;14.40;99.90
17346;DHT22;8790;53.590;10.002;2022-10-16T07:39:28;14.50;99.90
17346;DHT22;8790;53.590;10.002;2022-10-16T07:41:59;14.50;99.90
17346;DHT22;8790;53.590;10.002;2022-10-16T07:44:31;14.50;99.90
17346;DHT22;8790;53.590;10.002;2022-10-16T07:47:03;14.50;99.90
17346;DHT22;8790;53.590;10.002;2022-10-16T07:49:35;14.60;99.90
17346;DHT22;8790;53.590;10.002;2022-10-16T07:52:08;14.70;99.90
17346;DHT22;8790;53.590;10.002;2022-10-16T07:54:40;14.70;99.90
17346;DHT22;8790;53.590;10.002;2022-10-16T07:57:11;14.70;99.90
17346;DHT22;8790;53.590;10.002;2022-10-16T07:59:49;14.80;99.90
17346;DHT22;8790;53.590;10.002;2022-10-16T08:02:21;14.70;99.90
17346;DHT22;8790;53.590;10.002;2022-10-16T08:04:53;14.80;99.90
17346;DHT22;8790;53.590;10.002;2022-10-16T08:07:26;14.70;99.90
17346;DHT22;8790;53.590;10.002;2022-10-16T08:09:58;14.70;99.90
17346;DHT22;8790;53.590;10.002;2022-10-16T08:12:30;14.70;99.90
17346;DHT22;8790;53.590;10.002;2022-10-16T08:15:02;14.70;99.90
17346;DHT22;8790;53.590;10.002;2022-10-16T08:17:34;14.70;99.90
17346;DHT22;8790;53.590;10.002;2022-10-16T08:20:07;14.70;99.90
17346;DHT22;8790;53.590;10.002;2022-10-16T08:22:40;14.80;99.90
17346;DHT22;8790;53.590;10.002;2022-10-16T08:25:12;14.80;99.90
17346;DHT22;8790;53.590;10.002;2022-10-16T08:27:43;14.80;99.90
17346;DHT22;8790;53.590;10.002;2022-10-16T08:30:16;14.80;99.90
17346;DHT22;8790;53.590;10.002;2022-10-16T08:32:49;14.80;99.90
17346;DHT22;8790;53.590;10.002;2022-10-16T08:35:21;14.90;99.90
17346;DHT22;8790;53.590;10.002;2022-10-16T08:37:54;14.90;99.90
17346;DHT22;8790;53.590;10.002;2022-10-16T08:40:28;15.00;99.90
17346;DHT22;8790;53.590;10.002;2022-10-16T08:43:15;15.00;99.90
17346;DHT22;8790;53.590;10.002;2022-10-16T08:46:19;15.00;99.90
17346;DHT22;8790;53.590;10.002;2022-10-16T08:48:55;15.00;99.90
17346;DHT22;8790;53.590;10.002;2022-10-16T08:51:31;15.10;99.90
17346;DHT22;8790;53.590;10.002;2022-10-16T08:54:21;15.10;99.90
17346;DHT22;8790;53.590;10.002;2022-10-16T08:56:54;15.10;99.90
17346;DHT22;8790;53.590;10.002;2022-10-16T08:59:27;15.20;99.90
17346;DHT22;8790;53.590;10.002;2022-10-16T09:01:59;15.20;99.90
17346;DHT22;8790;53.590;10.002;2022-10-16T09:04:48;15.20;99.90
17346;DHT22;8790;53.590;10.002;2022-10-16T09:07:29;15.20;99.90
17346;DHT22;8790;53.590;10.002;2022-10-16T09:10:23;15.30;99.90
17346;DHT22;8790;53.590;10.002;2022-10-16T09:13:00;15.30;99.90
17346;DHT22;8790;53.590;10.002;2022-10-16T09:15:37;15.30;99.90
17346;DHT22;8790;53.590;10.002;2022-10-16T09:18:16;15.40;99.90
17346;DHT22;8790;53.590;10.002;2022-10-16T09:20:55;15.40;99.90
17346;DHT22;8790;53.590;10.002;2022-10-16T09:23:31;15.50;99.90
17346;DHT22;8790;53.590;10.002;2022-10-16T09:26:12;15.50;99.90
17346;DHT22;8790;53.590;10.002;2022-10-16T09:28:44;15.60;99.90
17346;DHT22;8790;53.590;10.002;2022-10-16T09:31:18;15.60;99.90
17346;DHT22;8790;53.590;10.002;2022-10-16T09:33:53;15.70;99.90
17346;DHT22;8790;53.590;10.002;2022-10-16T09:36:28;15.80;99.90
17346;DHT22;8790;53.590;10.002;2022-10-16T09:39:07;15.90;99.90
17346;DHT22;8790;53.590;10.002;2022-10-16T09:41:43;15.90;99.90
17346;DHT22;8790;53.590;10.002;2022-10-16T09:44:19;15.80;99.90
17346;DHT22;8790;53.590;10.002;2022-10-16T09:47:01;15.90;99.90
17346;DHT22;8790;53.590;10.002;2022-10-16T09:49:33;15.90;99.90
17346;DHT22;8790;53.590;10.002;2022-10-16T09:52:10;15.90;99.90
17346;DHT22;8790;53.590;10.002;2022-10-16T09:54:49;16.00;99.90
17346;DHT22;8790;53.590;10.002;2022-10-16T09:57:23;16.00;99.90
17346;DHT22;8790;53.590;10.002;2022-10-16T09:59:57;16.00;99.90
17346;DHT22;8790;53.590;10.002;2022-10-16T10:02:31;16.10;99.90
17346;DHT22;8790;53.590;10.002;2022-10-16T10:05:06;16.10;99.90
17346;DHT22;8790;53.590;10.002;2022-10-16T10:07:55;16.20;99.90
17346;DHT22;8790;53.590;10.002;2022-10-16T10:10:28;16.20;99.90
17346;DHT22;8790;53.590;10.002;2022-10-16T10:13:02;16.20;99.90
17346;DHT22;8790;53.590;10.002;2022-10-16T10:15:41;16.20;99.90
17346;DHT22;8790;53.590;10.002;2022-10-16T10:18:17;16.20;99.90
17346;DHT22;8790;53.590;10.002;2022-10-16T10:20:58;16.30;99.90
17346;DHT22;8790;53.590;10.002;2022-10-16T10:23:30;16.30;99.90
17346;DHT22;8790;53.590;10.002;2022-10-16T10:26:06;16.30;99.90
17346;DHT22;8790;53.590;10.002;2022-10-16T10:28:54;16.30;99.90
17346;DHT22;8790;53.590;10.002;2022-10-16T10:31:31;16.30;99.90
17346;DHT22;8790;53.590;10.002;2022-10-16T10:34:17;16.30;99.90
17346;DHT22;8790;53.590;10.002;2022-10-16T10:37:00;16.30;99.90
17346;DHT22;8790;53.590;10.002;2022-10-16T10:39:38;16.40;99.90
17346;DHT22;8790;53.590;10.002;2022-10-16T10:42:22;16.40;99.90
17346;DHT22;8790;53.590;10.002;2022-10-16T10:45:17;16.50;99.90
17346;DHT22;8790;53.590;10.002;2022-10-16T10:48:22;16.60;99.90
17346;DHT22;8790;53.590;10.002;2022-10-16T10:50:59;16.60;99.90
17346;DHT22;8790;53.590;10.002;2022-10-16T10:53:40;16.60;99.90
17346;DHT22;8790;53.590;10.002;2022-10-16T10:56:24;16.70;99.90
17346;DHT22;8790;53.590;10.002;2022-10-16T10:59:16;16.70;99.90
17346;DHT22;8790;53.590;10.002;2022-10-16T11:02:00;16.80;99.90
17346;DHT22;8790;53.590;10.002;2022-10-16T11:04:58;16.80;99.90
17346;DHT22;8790;53.590;10.002;2022-10-16T11:07:36;16.80;99.90
17346;DHT22;8790;53.590;10.002;2022-10-16T11:10:15;16.80;99.90
17346;DHT22;8790;53.590;10.002;2022-10-16T11:12:51;17.00;99.90
17346;DHT22;8790;53.590;10.002;2022-10-16T11:15:28;17.00;99.90
17346;DHT22;8790;53.590;10.002;2022-10-16T11:18:05;17.10;99.90
17346;DHT22;8790;53.590;10.002;2022-10-16T11:20:41;17.10;99.90
17346;DHT22;8790;53.590;10.002;2022-10-16T11:23:17;17.20;99.90
17346;DHT22;8790;53.590;10.002;2022-10-16T11:25:50;17.20;99.90
17346;DHT22;8790;53.590;10.002;2022-10-16T11:28:26;17.20;99.90
17346;DHT22;8790;53.590;10.002;2022-10-16T11:31:03;17.20;99.90
17346;DHT22;8790;53.590;10.002;2022-10-16T11:33:43;17.30;99.90
17346;DHT22;8790;53.590;10.002;2022-10-16T11:36:21;17.30;99.90
17346;DHT22;8790;53.590;10.002;2022-10-16T11:38:58;17.30;99.90
17346;DHT22;8790;53.590;10.002;2022-10-16T11:41:34;17.30;99.90
17346;DHT22;8790;53.590;10.002;2022-10-16T11:44:16;17.30;99.90
17346;DHT22;8790;53.590;10.002;2022-10-16T11:46:58;17.30;99.90
17346;DHT22;8790;53.590;10.002;2022-10-16T11:49:36;17.20;99.90
17346;DHT22;8790;53.590;10.002;2022-10-16T11:52:13;17.20;99.90
17346;DHT22;8790;53.590;10.002;2022-10-16T11:54:50;17.20;99.90
17346;DHT22;8790;53.590;10.002;2022-10-16T11:57:25;17.10;99.90
17346;DHT22;8790;53.590;10.002;2022-10-16T12:00:00;17.10;99.90
17346;DHT22;8790;53.590;10.002;2022-10-16T12:02:50;17.10;99.90
17346;DHT22;8790;53.590;10.002;2022-10-16T12:05:30;17.10;99.90
17346;DHT22;8790;53.590;10.002;2022-10-16T12:08:09;17.00;99.90
17346;DHT22;8790;53.590;10.002;2022-10-16T12:10:44;17.10;99.90
17346;DHT22;8790;53.590;10.002;2022-10-16T12:13:33;17.10;99.90
17346;DHT22;8790;53.590;10.002;2022-10-16T12:16:07;17.00;99.90
17346;DHT22;8790;53.590;10.002;2022-10-16T12:19:07;17.00;99.90
17346;DHT22;8790;53.590;10.002;2022-10-16T12:21:43;17.00;99.90
17346;DHT22;8790;53.590;10.002;2022-10-16T12:24:33;17.10;99.90
17346;DHT22;8790;53.590;10.002;2022-10-16T12:27:17;17.20;99.90
17346;DHT22;8790;53.590;10.002;2022-10-16T12:29:55;17.30;99.90
17346;DHT22;8790;53.590;10.002;2022-10-16T12:32:30;17.30;99.90
17346;DHT22;8790;53.590;10.002;2022-10-16T12:35:05;17.30;99.90
17346;DHT22;8790;53.590;10.002;2022-10-16T12:37:39;17.40;99.90
17346;DHT22;8790;53.590;10.002;2022-10-16T12:40:14;17.50;99.90
17346;DHT22;8790;53.590;10.002;2022-10-16T12:42:46;17.40;99.90
17346;DHT22;8790;53.590;10.002;2022-10-16T12:45:30;17.50;99.90
17346;DHT22;8790;53.590;10.002;2022-10-16T12:48:18;17.50;99.90
17346;DHT22;8790;53.590;10.002;2022-10-16T12:50:50;17.50;99.90
17346;DHT22;8790;53.590;10.002;2022-10-16T12:53:25;17.60;99.90
17346;DHT22;8790;53.590;10.002;2022-10-16T12:56:04;17.60;99.90
17346;DHT22;8790;53.590;10.002;2022-10-16T12:58:57;17.60;99.90
17346;DHT22;8790;53.590;10.002;2022-10-16T13:01:40;17.50;99.90
17346;DHT22;8790;53.590;10.002;2022-10-16T13:04:29;17.60;99.90
17346;DHT22;8790;53.590;10.002;2022-10-16T13:07:19;17.60;99.90
17346;DHT22;8790;53.590;10.002;2022-10-16T13:10:03;17.60;99.90
17346;DHT22;8790;53.590;10.002;2022-10-16T13:15:53;17.60;99.90
17346;DHT22;8790;53.590;10.002;2022-10-16T13:18:32;17.60;99.90
17346;DHT22;8790;53.590;10.002;2022-10-16T13:21:16;17.60;99.90
17346;DHT22;8790;53.590;10.002;2022-10-16T13:23:53;17.70;99.90
17346;DHT22;8790;53.590;10.002;2022-10-16T13:26:39;17.70;99.90
17346;DHT22;8790;53.590;10.002;2022-10-16T13:29:13;17.70;99.90
17346;DHT22;8790;53.590;10.002;2022-10-16T13:31:45;17.70;99.90
17346;DHT22;8790;53.590;10.002;2022-10-16T13:34:19;17.70;99.90
17346;DHT22;8790;53.590;10.002;2022-10-16T13:36:53;17.60;99.90
17346;DHT22;8790;53.590;10.002;2022-10-16T13:39:26;17.60;99.90
17346;DHT22;8790;53.590;10.002;2022-10-16T13:42:03;17.50;99.90
17346;DHT22;8790;53.590;10.002;2022-10-16T13:44:40;17.50;99.90
17346;DHT22;8790;53.590;10.002;2022-10-16T13:47:16;17.40;99.90
17346;DHT22;8790;53.590;10.002;2022-10-16T13:49:59;17.40;99.90
17346;DHT22;8790;53.590;10.002;2022-10-16T13:52:32;17.40;99.90
17346;DHT22;8790;53.590;10.002;2022-10-16T13:55:09;17.40;99.90
17346;DHT22;8790;53.590;10.002;2022-10-16T13:57:43;17.30;99.90
17346;DHT22;8790;53.590;10.002;2022-10-16T14:00:20;17.30;99.90
17346;DHT22;8790;53.590;10.002;2022-10-16T14:03:02;17.20;99.90
17346;DHT22;8790;53.590;10.002;2022-10-16T14:05:35;17.20;99.90
17346;DHT22;8790;53.590;10.002;2022-10-16T14:08:11;17.20;99.90
17346;DHT22;8790;53.590;10.002;2022-10-16T14:10:47;17.20;99.90
17346;DHT22;8790;53.590;10.002;2022-10-16T14:13:28;17.20;99.90
17346;DHT22;8790;53.590;10.002;2022-10-16T14:16:06;17.20;99.90
17346;DHT22;8790;53.590;10.002;2022-10-16T14:18:39;17.30;99.90
17346;DHT22;8790;53.590;10.002;2022-10-16T14:21:13;17.20;99.90
17346;DHT22;8790;53.590;10.002;2022-10-16T14:23:45;17.20;99.90
17346;DHT22;8790;53.590;10.002;2022-10-16T14:26:19;17.20;99.90
17346;DHT22;8790;53.590;10.002;2022-10-16T14:29:10;17.30;99.90
17346;DHT22;8790;53.590;10.002;2022-10-16T14:31:43;17.30;99.90
17346;DHT22;8790;53.590;10.002;2022-10-16T14:34:27;17.30;99.90
17346;DHT22;8790;53.590;10.002;2022-10-16T14:37:06;17.20;99.90
17346;DHT22;8790;53.590;10.002;2022-10-16T14:39:39;17.20;99.90
17346;DHT22;8790;53.590;10.002;2022-10-16T14:42:14;17.20;99.90
17346;DHT22;8790;53.590;10.002;2022-10-16T14:44:49;17.20;99.90
17346;DHT22;8790;53.590;10.002;2022-10-16T14:47:25;17.20;99.90
17346;DHT22;8790;53.590;10.002;2022-10-16T14:49:57;17.20;99.90
17346;DHT22;8790;53.590;10.002;2022-10-16T14:52:30;17.20;99.90
17346;DHT22;8790;53.590;10.002;2022-10-16T14:55:02;17.10;99.90
17346;DHT22;8790;53.590;10.002;2022-10-16T14:57:35;17.10;99.90
17346;DHT22;8790;53.590;10.002;2022-10-16T15:00:18;17.10;99.90
17346;DHT22;8790;53.590;10.002;2022-10-16T15:02:51;17.10;99.90
17346;DHT22;8790;53.590;10.002;2022-10-16T15:05:24;17.10;99.90
17346;DHT22;8790;53.590;10.002;2022-10-16T15:07:57;17.10;99.90
17346;DHT22;8790;53.590;10.002;2022-10-16T15:10:30;17.10;99.90
17346;DHT22;8790;53.590;10.002;2022-10-16T15:13:03;17.00;99.90
17346;DHT22;8790;53.590;10.002;2022-10-16T15:15:38;17.00;99.90
17346;DHT22;8790;53.590;10.002;2022-10-16T15:18:12;17.00;99.90
17346;DHT22;8790;53.590;10.002;2022-10-16T15:20:47;17.00;99.90
17346;DHT22;8790;53.590;10.002;2022-10-16T15:23:20;17.00;99.90
17346;DHT22;8790;53.590;10.002;2022-10-16T15:25:54;16.90;99.90
17346;DHT22;8790;53.590;10.002;2022-10-16T15:28:26;16.90;99.90
17346;DHT22;8790;53.590;10.002;2022-10-16T15:30:59;16.90;99.90
17346;DHT22;8790;53.590;10.002;2022-10-16T15:33:31;16.90;99.90
17346;DHT22;8790;53.590;10.002;2022-10-16T15:36:06;16.90;99.90
17346;DHT22;8790;53.590;10.002;2022-10-16T15:38:38;16.80;99.90
17346;DHT22;8790;53.590;10.002;2022-10-16T15:41:13;16.80;99.90
17346;DHT22;8790;53.590;10.002;2022-10-16T15:43:47;16.80;99.90
17346;DHT22;8790;53.590;10.002;2022-10-16T15:46:24;16.80;99.90
17346;DHT22;8790;53.590;10.002;2022-10-16T15:48:58;16.70;99.90
17346;DHT22;8790;53.590;10.002;2022-10-16T15:51:30;16.70;99.90
17346;DHT22;8790;53.590;10.002;2022-10-16T15:54:03;16.60;99.90
17346;DHT22;8790;53.590;10.002;2022-10-16T15:56:41;16.70;99.90
17346;DHT22;8790;53.590;10.002;2022-10-16T15:59:13;16.60;99.90
17346;DHT22;8790;53.590;10.002;2022-10-16T16:01:46;16.60;99.90
17346;DHT22;8790;53.590;10.002;2022-10-16T16:04:18;16.50;99.90
17346;DHT22;8790;53.590;10.002;2022-10-16T16:06:50;16.50;99.90
17346;DHT22;8790;53.590;10.002;2022-10-16T16:09:22;16.50;99.90
17346;DHT22;8790;53.590;10.002;2022-10-16T16:11:54;16.40;99.90
17346;DHT22;8790;53.590;10.002;2022-10-16T16:14:26;16.40;99.90
17346;DHT22;8790;53.590;10.002;2022-10-16T16:17:03;16.40;99.90
17346;DHT22;8790;53.590;10.002;2022-10-16T16:19:34;16.30;99.90
17346;DHT22;8790;53.590;10.002;2022-10-16T16:22:06;16.30;99.90
17346;DHT22;8790;53.590;10.002;2022-10-16T16:24:38;16.20;99.90